sensor_id;sensor_type;location;lat;lon;timestamp;pressure;altitude;pressure_sealevel;temperature;humidity
11041;BME280;5573;49.592;8.662;2023-02-18T00:00:14;100729.06;;;12.00;100.00
11041;BME280;5573;49.592;8.662;2023-02-18T00:02:43;100721.84;;;11.92;100.00
11041;BME280;5573;49.592;8.662;2023-02-18T00:05:11;100710.63;;;12.05;100.00
11041;BME280;5573;49.592;8.662;2023-02-18T00:07:40;100718.72;;;11.94;100.00
11041;BME280;5573;49.592;8.662;2023-02-18T00:10:11;100717.59;;;11.98;100.00
11041;BME280;5573;49.592;8.662;2023-02-18T00:12:40;100717.25;;;12.00;100.00
11041;BME280;5573;49.592;8.662;2023-02-18T00:15:09;100721.41;;;11.90;100.00
11041;BME280;5573;49.592;8.662;2023-02-18T00:17:37;100703.50;;;11.80;100.00
11041;BME280;5573;49.592;8.662;2023-02-18T00:20:06;100720.25;;;11.91;100.00
11041;BME280;5573;49.592;8.662;2023-02-18T00:22:34;100722.78;;;12.04;100.00
11041;BME280;5573;49.592;8.662;2023-02-18T00:25:02;100717.28;;;12.04;100.00
11041;BME280;5573;49.592;8.662;2023-02-18T00:27:30;100715.59;;;11.95;100.00
11041;BME280;5573;49.592;8.662;2023-02-18T00:30:00;100709.25;;;11.95;100.00
11041;BME280;5573;49.592;8.662;2023-02-18T00:32:31;100707.97;;;11.89;100.00
11041;BME280;5573;49.592;8.662;2023-02-18T00:34:59;100713.69;;;11.99;100.00
11041;BME280;5573;49.592;8.662;2023-02-18T00:37:28;100706.06;;;11.93;100.00
11041;BME280;5573;49.592;8.662;2023-02-18T00:39:55;100715.63;;;11.99;100.00
11041;BME280;5573;49.592;8.662;2023-02-18T00:42:23;100713.69;;;11.99;100.00
11041;BME280;5573;49.592;8.662;2023-02-18T00:44:52;100715.09;;;12.13;100.00
11041;BME280;5573;49.592;8.662;2023-02-18T00:47:20;100714.94;;;12.06;100.00
11041;BME280;5573;49.592;8.662;2023-02-18T00:49:49;100714.66;;;12.11;100.00
11041;BME280;5573;49.592;8.662;2023-02-18T00:52:16;100701.56;;;12.04;100.00
11041;BME280;5573;49.592;8.662;2023-02-18T00:54:44;100698.84;;;12.08;100.00
11041;BME280;5573;49.592;8.662;2023-02-18T00:57:12;100709.44;;;12.06;100.00
11041;BME280;5573;49.592;8.662;2023-02-18T00:59:40;100699.16;;;12.03;100.00
11041;BME280;5573;49.592;8.662;2023-02-18T01:02:07;100707.44;;;12.03;100.00
11041;BME280;5573;49.592;8.662;2023-02-18T01:04:35;100707.44;;;12.03;100.00
11041;BME280;5573;49.592;8.662;2023-02-18T01:07:04;100711.97;;;12.14;100.00
11041;BME280;5573;49.592;8.662;2023-02-18T01:09:32;100711.56;;;12.16;100.00
11041;BME280;5573;49.592;8.662;2023-02-18T01:12:00;100702.25;;;11.97;100.00
11041;BME280;5573;49.592;8.662;2023-02-18T01:14:28;100708.66;;;12.05;100.00
11041;BME280;5573;49.592;8.662;2023-02-18T01:16:55;100711.16;;;12.14;100.00
11041;BME280;5573;49.592;8.662;2023-02-18T01:19:23;100703.19;;;12.09;100.00
11041;BME280;5573;49.592;8.662;2023-02-18T01:21:51;100711.91;;;12.11;100.00
11041;BME280;5573;49.592;8.662;2023-02-18T01:24:20;100707.59;;;12.13;100.00
11041;BME280;5573;49.592;8.662;2023-02-18T01:26:48;100712.06;;;12.22;100.00
11041;BME280;5573;49.592;8.662;2023-02-18T01:29:16;100715.25;;;12.24;100.00
11041;BME280;5573;49.592;8.662;2023-02-18T01:31:44;100709.53;;;12.36;100.00
11041;BME280;5573;49.592;8.662;2023-02-18T01:34:13;100715.34;;;12.31;100.00
11041;BME280;5573;49.592;8.662;2023-02-18T01:36:41;100709.38;;;12.25;100.00
11041;BME280;5573;49.592;8.662;2023-02-18T01:39:09;100698.00;;;12.30;100.00
11041;BME280;5573;49.592;8.662;2023-02-18T01:41:38;100695.59;;;12.29;100.00
11041;BME280;5573;49.592;8.662;2023-02-18T01:44:11;100696.50;;;12.36;100.00
11041;BME280;5573;49.592;8.662;2023-02-18T01:46:39;100704.22;;;12.24;100.00
11041;BME280;5573;49.592;8.662;2023-02-18T01:49:07;100695.41;;;12.14;100.00
11041;BME280;5573;49.592;8.662;2023-02-18T01:51:39;100694.31;;;12.23;100.00
11041;BME280;5573;49.592;8.662;2023-02-18T01:54:12;100693.75;;;12.10;100.00
11041;BME280;5573;49.592;8.662;2023-02-18T01:56:46;100668.50;;;12.08;100.00
11041;BME280;5573;49.592;8.662;2023-02-18T01:59:18;100693.25;;;12.27;100.00
11041;BME280;5573;49.592;8.662;2023-02-18T02:01:48;100688.50;;;12.28;100.00
11041;BME280;5573;49.592;8.662;2023-02-18T02:04:16;100693.91;;;12.20;100.00
11041;BME280;5573;49.592;8.662;2023-02-18T02:06:44;100693.50;;;12.18;100.00
11041;BME280;5573;49.592;8.662;2023-02-18T02:09:13;100691.22;;;12.24;100.00
11041;BME280;5573;49.592;8.662;2023-02-18T02:12:12;100687.59;;;12.20;100.00
11041;BME280;5573;49.592;8.662;2023-02-18T02:14:54;100674.94;;;12.15;100.00
11041;BME280;5573;49.592;8.662;2023-02-18T02:17:33;100681.78;;;12.25;100.00
11041;BME280;5573;49.592;8.662;2023-02-18T02:20:51;100671.53;;;12.26;100.00
11041;BME280;5573;49.592;8.662;2023-02-18T02:24:06;100679.75;;;12.22;100.00
11041;BME280;5573;49.592;8.662;2023-02-18T02:26:59;100661.91;;;12.16;100.00
11041;BME280;5573;49.592;8.662;2023-02-18T02:30:06;100664.00;;;12.23;100.00
11041;BME280;5573;49.592;8.662;2023-02-18T02:35:36;100653.44;;;12.28;100.00
11041;BME280;5573;49.592;8.662;2023-02-18T02:38:09;100620.88;;;12.11;100.00
11041;BME280;5573;49.592;8.662;2023-02-18T02:40:45;100647.84;;;12.25;100.00
11041;BME280;5573;49.592;8.662;2023-02-18T02:43:19;100648.44;;;12.37;100.00
11041;BME280;5573;49.592;8.662;2023-02-18T02:45:53;100642.53;;;12.35;100.00
11041;BME280;5573;49.592;8.662;2023-02-18T02:48:30;100636.56;;;12.33;100.00
11041;BME280;5573;49.592;8.662;2023-02-18T02:51:06;100643.59;;;12.27;100.00
11041;BME280;5573;49.592;8.662;2023-02-18T02:53:36;100646.84;;;12.36;100.00
11041;BME280;5573;49.592;8.662;2023-02-18T02:56:10;100638.94;;;12.35;100.00
11041;BME280;5573;49.592;8.662;2023-02-18T02:58:40;100640.56;;;12.39;100.00
11041;BME280;5573;49.592;8.662;2023-02-18T03:01:19;100629.41;;;12.29;100.00
11041;BME280;5573;49.592;8.662;2023-02-18T03:04:12;100634.91;;;12.29;100.00
11041;BME280;5573;49.592;8.662;2023-02-18T03:06:57;100630.44;;;12.17;100.00
11041;BME280;5573;49.592;8.662;2023-02-18T03:09:36;100639.97;;;12.23;100.00
11041;BME280;5573;49.592;8.662;2023-02-18T03:12:14;100630.84;;;12.19;100.00
11041;BME280;5573;49.592;8.662;2023-02-18T03:14:48;100626.22;;;12.27;100.00
11041;BME280;5573;49.592;8.662;2023-02-18T03:17:23;100624.50;;;12.15;100.00
11041;BME280;5573;49.592;8.662;2023-02-18T03:19:54;100632.00;;;12.18;100.00
11041;BME280;5573;49.592;8.662;2023-02-18T03:22:28;100631.66;;;12.19;100.00
11041;BME280;5573;49.592;8.662;2023-02-18T03:25:00;100624.94;;;12.20;100.00
11041;BME280;5573;49.592;8.662;2023-02-18T03:27:32;100624.28;;;12.27;100.00
11041;BME280;5573;49.592;8.662;2023-02-18T03:30:05;100570.69;;;11.98;100.00
11041;BME280;5573;49.592;8.662;2023-02-18T03:32:34;100615.16;;;12.23;100.00
11041;BME280;5573;49.592;8.662;2023-02-18T03:35:06;100613.91;;;12.20;100.00
11041;BME280;5573;49.592;8.662;2023-02-18T03:37:39;100614.81;;;12.28;100.00
11041;BME280;5573;49.592;8.662;2023-02-18T03:40:10;100616.78;;;12.28;100.00
11041;BME280;5573;49.592;8.662;2023-02-18T03:42:38;100625.47;;;12.30;100.00
11041;BME280;5573;49.592;8.662;2023-02-18T03:45:06;100621.09;;;12.25;100.00
11041;BME280;5573;49.592;8.662;2023-02-18T03:47:35;100624.69;;;12.29;100.00
11041;BME280;5573;49.592;8.662;2023-02-18T03:50:03;100621.53;;;12.31;100.00
11041;BME280;5573;49.592;8.662;2023-02-18T03:52:31;100632.22;;;12.32;100.00
11041;BME280;5573;49.592;8.662;2023-02-18T03:55:04;100629.72;;;12.24;100.00
11041;BME280;5573;49.592;8.662;2023-02-18T03:57:32;100624.13;;;12.16;100.00
11041;BME280;5573;49.592;8.662;2023-02-18T03:59:59;100614.34;;;12.23;100.00
11041;BME280;5573;49.592;8.662;2023-02-18T04:02:38;100624.06;;;12.13;100.00
11041;BME280;5573;49.592;8.662;2023-02-18T04:05:07;100606.97;;;12.04;100.00
11041;BME280;5573;49.592;8.662;2023-02-18T04:07:34;100620.56;;;12.16;100.00
11041;BME280;5573;49.592;8.662;2023-02-18T04:10:04;100620.56;;;12.16;100.00
11041;BME280;5573;49.592;8.662;2023-02-18T04:12:33;100632.97;;;12.03;100.00
11041;BME280;5573;49.592;8.662;2023-02-18T04:15:01;100628.22;;;11.99;100.00
11041;BME280;5573;49.592;8.662;2023-02-18T04:17:29;100629.03;;;12.04;100.00
11041;BME280;5573;49.592;8.662;2023-02-18T04:19:56;100618.06;;;12.07;100.00
11041;BME280;5573;49.592;8.662;2023-02-18T04:22:24;100626.75;;;12.09;100.00
11041;BME280;5573;49.592;8.662;2023-02-18T04:24:52;100625.22;;;12.12;100.00
11041;BME280;5573;49.592;8.662;2023-02-18T04:27:21;100620.47;;;12.09;100.00
11041;BME280;5573;49.592;8.662;2023-02-18T04:29:49;100632.28;;;12.09;100.00
11041;BME280;5573;49.592;8.662;2023-02-18T04:32:17;100634.25;;;12.09;100.00
11041;BME280;5573;49.592;8.662;2023-02-18T04:34:44;100627.88;;;12.05;100.00
11041;BME280;5573;49.592;8.662;2023-02-18T04:37:12;100629.16;;;12.11;100.00
11041;BME280;5573;49.592;8.662;2023-02-18T04:39:40;100630.16;;;11.99;100.00
11041;BME280;5573;49.592;8.662;2023-02-18T04:42:08;100626.50;;;11.91;100.00
11041;BME280;5573;49.592;8.662;2023-02-18T04:44:37;100635.03;;;12.09;100.00
11041;BME280;5573;49.592;8.662;2023-02-18T04:47:05;100618.81;;;12.04;100.00
11041;BME280;5573;49.592;8.662;2023-02-18T04:49:33;100622.88;;;12.14;100.00
11041;BME280;5573;49.592;8.662;2023-02-18T04:52:01;100628.41;;;12.14;100.00
11041;BME280;5573;49.592;8.662;2023-02-18T04:54:29;100628.78;;;12.12;100.00
11041;BME280;5573;49.592;8.662;2023-02-18T04:56:57;100620.94;;;12.14;100.00
11041;BME280;5573;49.592;8.662;2023-02-18T04:59:25;100619.69;;;12.08;100.00
11041;BME280;5573;49.592;8.662;2023-02-18T05:01:54;100614.94;;;12.09;100.00
11041;BME280;5573;49.592;8.662;2023-02-18T05:04:22;100587.53;;;11.93;100.00
11041;BME280;5573;49.592;8.662;2023-02-18T05:06:49;100622.78;;;12.07;100.00
11041;BME280;5573;49.592;8.662;2023-02-18T05:09:17;100617.84;;;12.19;100.00
11041;BME280;5573;49.592;8.662;2023-02-18T05:11:45;100619.41;;;12.17;100.00
11041;BME280;5573;49.592;8.662;2023-02-18T05:14:14;100624.22;;;12.24;100.00
11041;BME280;5573;49.592;8.662;2023-02-18T05:16:42;100630.31;;;12.10;100.00
11041;BME280;5573;49.592;8.662;2023-02-18T05:19:12;100621.84;;;11.95;100.00
11041;BME280;5573;49.592;8.662;2023-02-18T05:21:40;100625.97;;;12.09;100.00
11041;BME280;5573;49.592;8.662;2023-02-18T05:24:08;100623.69;;;12.14;100.00
11041;BME280;5573;49.592;8.662;2023-02-18T05:26:36;100616.09;;;12.08;100.00
11041;BME280;5573;49.592;8.662;2023-02-18T05:29:04;100624.50;;;12.15;100.00
11041;BME280;5573;49.592;8.662;2023-02-18T05:31:32;100621.72;;;11.88;100.00
11041;BME280;5573;49.592;8.662;2023-02-18T05:34:00;100620.66;;;11.96;100.00
11041;BME280;5573;49.592;8.662;2023-02-18T05:36:29;100610.59;;;12.08;100.00
11041;BME280;5573;49.592;8.662;2023-02-18T05:38:57;100613.78;;;11.87;100.00
11041;BME280;5573;49.592;8.662;2023-02-18T05:41:24;100620.25;;;11.94;100.00
11041;BME280;5573;49.592;8.662;2023-02-18T05:43:52;100617.06;;;11.92;100.00
11041;BME280;5573;49.592;8.662;2023-02-18T05:46:37;100616.94;;;11.85;100.00
11041;BME280;5573;49.592;8.662;2023-02-18T05:49:05;100614.81;;;12.02;100.00
11041;BME280;5573;49.592;8.662;2023-02-18T05:51:34;100614.72;;;11.94;100.00
11041;BME280;5573;49.592;8.662;2023-02-18T05:54:02;100603.28;;;11.92;100.00
11041;BME280;5573;49.592;8.662;2023-02-18T05:56:30;100614.09;;;12.05;100.00
11041;BME280;5573;49.592;8.662;2023-02-18T05:58:58;100607.72;;;12.00;100.00
11041;BME280;5573;49.592;8.662;2023-02-18T06:01:26;100606.88;;;11.96;100.00
11041;BME280;5573;49.592;8.662;2023-02-18T06:03:53;100596.66;;;11.97;100.00
11041;BME280;5573;49.592;8.662;2023-02-18T06:06:21;100594.88;;;11.85;100.00
11041;BME280;5573;49.592;8.662;2023-02-18T06:08:50;100595.91;;;12.00;100.00
11041;BME280;5573;49.592;8.662;2023-02-18T06:11:17;100612.41;;;11.96;100.00
11041;BME280;5573;49.592;8.662;2023-02-18T06:13:49;100596.00;;;11.80;100.00
11041;BME280;5573;49.592;8.662;2023-02-18T06:16:16;100594.50;;;11.87;100.00
11041;BME280;5573;49.592;8.662;2023-02-18T06:18:44;100597.50;;;11.78;100.00
11041;BME280;5573;49.592;8.662;2023-02-18T06:21:12;100601.31;;;11.93;100.00
11041;BME280;5573;49.592;8.662;2023-02-18T06:23:39;100605.19;;;11.88;100.00
11041;BME280;5573;49.592;8.662;2023-02-18T06:26:08;100608.78;;;11.92;100.00
11041;BME280;5573;49.592;8.662;2023-02-18T06:28:36;100606.28;;;11.84;100.00
11041;BME280;5573;49.592;8.662;2023-02-18T06:31:04;100602.13;;;11.93;100.00
11041;BME280;5573;49.592;8.662;2023-02-18T06:33:32;100585.25;;;11.98;100.00
11041;BME280;5573;49.592;8.662;2023-02-18T06:36:02;100587.25;;;12.02;100.00
11041;BME280;5573;49.592;8.662;2023-02-18T06:38:33;100584.41;;;11.94;100.00
11041;BME280;5573;49.592;8.662;2023-02-18T06:41:01;100586.84;;;11.99;100.00
11041;BME280;5573;49.592;8.662;2023-02-18T06:43:31;100582.44;;;11.95;100.00
11041;BME280;5573;49.592;8.662;2023-02-18T06:45:58;100573.44;;;11.98;100.00
11041;BME280;5573;49.592;8.662;2023-02-18T06:48:26;100569.06;;;11.97;100.00
11041;BME280;5573;49.592;8.662;2023-02-18T06:50:55;100567.16;;;12.01;100.00
11041;BME280;5573;49.592;8.662;2023-02-18T06:53:23;100574.69;;;12.04;100.00
11041;BME280;5573;49.592;8.662;2023-02-18T06:55:51;100566.84;;;12.06;100.00
11041;BME280;5573;49.592;8.662;2023-02-18T06:58:18;100574.22;;;11.98;100.00
11041;BME280;5573;49.592;8.662;2023-02-18T07:00:47;100582.97;;;12.04;100.00
11041;BME280;5573;49.592;8.662;2023-02-18T07:03:15;100580.00;;;12.16;100.00
11041;BME280;5573;49.592;8.662;2023-02-18T07:05:43;100584.00;;;12.23;100.00
11041;BME280;5573;49.592;8.662;2023-02-18T07:08:11;100580.44;;;12.22;100.00
11041;BME280;5573;49.592;8.662;2023-02-18T07:10:39;100577.25;;;12.16;100.00
11041;BME280;5573;49.592;8.662;2023-02-18T07:13:06;100576.13;;;12.21;100.00
11041;BME280;5573;49.592;8.662;2023-02-18T07:15:34;100570.06;;;12.12;100.00
11041;BME280;5573;49.592;8.662;2023-02-18T07:18:03;100562.44;;;12.02;100.00
11041;BME280;5573;49.592;8.662;2023-02-18T07:20:31;100566.91;;;11.83;100.00
11041;BME280;5573;49.592;8.662;2023-02-18T07:22:59;100567.38;;;11.89;100.00
11041;BME280;5573;49.592;8.662;2023-02-18T07:25:27;100555.19;;;12.20;100.00
11041;BME280;5573;49.592;8.662;2023-02-18T07:27:54;100567.84;;;12.21;100.00
11041;BME280;5573;49.592;8.662;2023-02-18T07:30:22;100562.69;;;12.19;100.00
11041;BME280;5573;49.592;8.662;2023-02-18T07:32:50;100555.47;;;12.41;100.00
11041;BME280;5573;49.592;8.662;2023-02-18T07:35:19;100560.97;;;12.41;100.00
11041;BME280;5573;49.592;8.662;2023-02-18T07:37:48;100551.00;;;12.30;100.00
11041;BME280;5573;49.592;8.662;2023-02-18T07:40:19;100546.34;;;12.37;100.00
11041;BME280;5573;49.592;8.662;2023-02-18T07:42:47;100542.91;;;12.48;100.00
11041;BME280;5573;49.592;8.662;2023-02-18T07:45:15;100539.06;;;12.56;100.00
11041;BME280;5573;49.592;8.662;2023-02-18T07:47:43;100543.56;;;12.34;100.00
11041;BME280;5573;49.592;8.662;2023-02-18T07:50:11;100534.94;;;12.39;100.00
11041;BME280;5573;49.592;8.662;2023-02-18T07:52:40;100534.28;;;12.49;100.00
11041;BME280;5573;49.592;8.662;2023-02-18T07:55:08;100551.72;;;12.57;100.00
11041;BME280;5573;49.592;8.662;2023-02-18T07:57:36;100546.22;;;12.60;100.00
11041;BME280;5573;49.592;8.662;2023-02-18T08:00:22;100537.09;;;12.56;100.00
11041;BME280;5573;49.592;8.662;2023-02-18T08:02:50;100555.16;;;12.47;100.00
11041;BME280;5573;49.592;8.662;2023-02-18T08:05:18;100552.81;;;12.49;100.00
11041;BME280;5573;49.592;8.662;2023-02-18T08:07:47;100561.13;;;12.52;100.00
11041;BME280;5573;49.592;8.662;2023-02-18T08:10:16;100558.97;;;12.38;100.00
11041;BME280;5573;49.592;8.662;2023-02-18T08:12:43;100549.50;;;12.36;100.00
11041;BME280;5573;49.592;8.662;2023-02-18T08:15:11;100538.75;;;12.27;100.00
11041;BME280;5573;49.592;8.662;2023-02-18T08:17:39;100542.47;;;12.12;100.00
11041;BME280;5573;49.592;8.662;2023-02-18T08:20:08;100541.88;;;12.26;100.00
11041;BME280;5573;49.592;8.662;2023-02-18T08:22:36;100551.84;;;12.34;100.00
11041;BME280;5573;49.592;8.662;2023-02-18T08:25:05;100538.06;;;12.37;100.00
11041;BME280;5573;49.592;8.662;2023-02-18T08:27:37;100542.09;;;12.44;100.00
11041;BME280;5573;49.592;8.662;2023-02-18T08:30:06;100519.75;;;12.18;100.00
11041;BME280;5573;49.592;8.662;2023-02-18T08:32:34;100548.41;;;12.44;100.00
11041;BME280;5573;49.592;8.662;2023-02-18T08:35:02;100537.56;;;12.28;100.00
11041;BME280;5573;49.592;8.662;2023-02-18T08:37:30;100541.25;;;12.39;100.00
11041;BME280;5573;49.592;8.662;2023-02-18T08:40:19;100542.84;;;12.40;100.00
11041;BME280;5573;49.592;8.662;2023-02-18T08:42:47;100548.31;;;12.37;100.00
11041;BME280;5573;49.592;8.662;2023-02-18T08:45:14;100543.69;;;12.45;100.00
11041;BME280;5573;49.592;8.662;2023-02-18T08:47:42;100550.22;;;12.29;100.00
11041;BME280;5573;49.592;8.662;2023-02-18T08:50:30;100526.97;;;12.30;100.00
11041;BME280;5573;49.592;8.662;2023-02-18T08:52:58;100525.09;;;12.41;100.00
11041;BME280;5573;49.592;8.662;2023-02-18T08:55:30;100527.44;;;12.36;100.00
11041;BME280;5573;49.592;8.662;2023-02-18T08:57:58;100530.72;;;12.49;100.00
11041;BME280;5573;49.592;8.662;2023-02-18T09:00:26;100512.88;;;12.39;100.00
11041;BME280;5573;49.592;8.662;2023-02-18T09:02:54;100528.81;;;12.53;100.00
11041;BME280;5573;49.592;8.662;2023-02-18T09:05:22;100520.28;;;12.69;100.00
11041;BME280;5573;49.592;8.662;2023-02-18T09:07:50;100543.09;;;12.62;100.00
11041;BME280;5573;49.592;8.662;2023-02-18T09:10:18;100531.97;;;12.55;100.00
11041;BME280;5573;49.592;8.662;2023-02-18T09:12:47;100536.72;;;12.58;100.00
11041;BME280;5573;49.592;8.662;2023-02-18T09:15:15;100542.34;;;12.65;100.00
11041;BME280;5573;49.592;8.662;2023-02-18T09:17:42;100531.16;;;12.51;100.00
11041;BME280;5573;49.592;8.662;2023-02-18T09:20:11;100548.97;;;12.57;100.00
11041;BME280;5573;49.592;8.662;2023-02-18T09:22:39;100536.06;;;12.68;100.00
11041;BME280;5573;49.592;8.662;2023-02-18T09:25:07;100545.38;;;12.56;100.00
11041;BME280;5573;49.592;8.662;2023-02-18T09:27:34;100548.28;;;12.67;100.00
11041;BME280;5573;49.592;8.662;2023-02-18T09:30:05;100543.91;;;12.66;100.00
11041;BME280;5573;49.592;8.662;2023-02-18T09:32:33;100540.63;;;12.53;100.00
11041;BME280;5573;49.592;8.662;2023-02-18T09:35:01;100534.38;;;12.60;100.00
11041;BME280;5573;49.592;8.662;2023-02-18T09:37:29;100542.34;;;12.65;100.00
11041;BME280;5573;49.592;8.662;2023-02-18T09:39:57;100542.63;;;12.56;100.00
11041;BME280;5573;49.592;8.662;2023-02-18T09:42:29;100543.44;;;12.57;100.00
11041;BME280;5573;49.592;8.662;2023-02-18T09:45:00;100540.78;;;12.68;100.00
11041;BME280;5573;49.592;8.662;2023-02-18T09:47:34;100544.28;;;12.65;100.00
11041;BME280;5573;49.592;8.662;2023-02-18T09:50:06;100542.56;;;12.49;100.00
11041;BME280;5573;49.592;8.662;2023-02-18T09:52:36;100550.63;;;12.65;100.00
11041;BME280;5573;49.592;8.662;2023-02-18T09:55:20;100555.63;;;12.56;100.00
11041;BME280;5573;49.592;8.662;2023-02-18T09:57:50;100538.06;;;12.71;100.00
11041;BME280;5573;49.592;8.662;2023-02-18T10:00:22;100547.78;;;12.58;100.00
11041;BME280;5573;49.592;8.662;2023-02-18T10:02:57;100552.47;;;12.54;100.00
11041;BME280;5573;49.592;8.662;2023-02-18T10:05:27;100545.94;;;12.69;100.00
11041;BME280;5573;49.592;8.662;2023-02-18T10:07:59;100540.97;;;12.86;100.00
11041;BME280;5573;49.592;8.662;2023-02-18T10:10:35;100550.69;;;12.72;100.00
11041;BME280;5573;49.592;8.662;2023-02-18T10:13:10;100528.25;;;12.77;100.00
11041;BME280;5573;49.592;8.662;2023-02-18T10:15:39;100543.03;;;12.92;100.00
11041;BME280;5573;49.592;8.662;2023-02-18T10:18:20;100530.06;;;13.00;100.00
11041;BME280;5573;49.592;8.662;2023-02-18T10:20:50;100536.50;;;13.15;100.00
11041;BME280;5573;49.592;8.662;2023-02-18T10:23:19;100544.06;;;13.21;98.21
11041;BME280;5573;49.592;8.662;2023-02-18T10:25:48;100538.94;;;13.20;99.31
11041;BME280;5573;49.592;8.662;2023-02-18T10:28:18;100528.31;;;13.26;96.69
11041;BME280;5573;49.592;8.662;2023-02-18T10:30:52;100535.44;;;13.27;94.33
11041;BME280;5573;49.592;8.662;2023-02-18T10:33:32;100487.69;;;12.81;96.21
11041;BME280;5573;49.592;8.662;2023-02-18T10:36:08;100536.59;;;13.26;95.78
11041;BME280;5573;49.592;8.662;2023-02-18T10:38:43;100545.16;;;13.13;96.38
11041;BME280;5573;49.592;8.662;2023-02-18T10:41:21;100540.06;;;13.15;97.45
11041;BME280;5573;49.592;8.662;2023-02-18T10:43:58;100540.72;;;13.01;96.83
11041;BME280;5573;49.592;8.662;2023-02-18T10:46:35;100544.84;;;13.18;96.40
11041;BME280;5573;49.592;8.662;2023-02-18T10:49:22;100533.53;;;13.31;95.16
11041;BME280;5573;49.592;8.662;2023-02-18T10:51:56;100538.66;;;13.32;94.61
11041;BME280;5573;49.592;8.662;2023-02-18T10:54:26;100511.44;;;13.34;95.13
11041;BME280;5573;49.592;8.662;2023-02-18T10:57:16;100537.38;;;13.71;93.20
11041;BME280;5573;49.592;8.662;2023-02-18T10:59:55;100517.19;;;13.70;93.86
11041;BME280;5573;49.592;8.662;2023-02-18T11:02:25;100539.34;;;13.74;92.87
11041;BME280;5573;49.592;8.662;2023-02-18T11:04:58;100533.47;;;13.79;90.93
11041;BME280;5573;49.592;8.662;2023-02-18T11:07:30;100528.06;;;13.41;89.68
11041;BME280;5573;49.592;8.662;2023-02-18T11:10:00;100520.16;;;13.40;87.45
11041;BME280;5573;49.592;8.662;2023-02-18T11:12:43;100534.94;;;13.62;87.45
11041;BME280;5573;49.592;8.662;2023-02-18T11:15:17;100533.97;;;13.99;84.76
11041;BME280;5573;49.592;8.662;2023-02-18T11:17:47;100533.13;;;13.88;84.01
11041;BME280;5573;49.592;8.662;2023-02-18T11:20:33;100529.72;;;13.53;84.49
11041;BME280;5573;49.592;8.662;2023-02-18T11:23:18;100545.59;;;13.63;84.38
11041;BME280;5573;49.592;8.662;2023-02-18T11:25:55;100529.72;;;13.50;84.42
11041;BME280;5573;49.592;8.662;2023-02-18T11:28:40;100472.22;;;13.21;83.34
11041;BME280;5573;49.592;8.662;2023-02-18T11:31:14;100523.09;;;13.65;82.22
11041;BME280;5573;49.592;8.662;2023-02-18T11:33:47;100511.72;;;13.77;82.09
11041;BME280;5573;49.592;8.662;2023-02-18T11:36:21;100516.47;;;13.80;81.07
11041;BME280;5573;49.592;8.662;2023-02-18T11:38:52;100504.53;;;13.62;81.60
11041;BME280;5573;49.592;8.662;2023-02-18T11:41:29;100495.06;;;13.70;80.59
11041;BME280;5573;49.592;8.662;2023-02-18T11:43:58;100501.34;;;13.60;80.02
11041;BME280;5573;49.592;8.662;2023-02-18T11:46:27;100498.22;;;13.65;79.44
11041;BME280;5573;49.592;8.662;2023-02-18T11:48:55;100496.72;;;13.82;79.28
11041;BME280;5573;49.592;8.662;2023-02-18T11:51:26;100497.41;;;13.61;78.66
11041;BME280;5573;49.592;8.662;2023-02-18T11:53:57;100496.66;;;13.68;77.96
11041;BME280;5573;49.592;8.662;2023-02-18T11:56:28;100503.38;;;13.70;77.06
11041;BME280;5573;49.592;8.662;2023-02-18T11:58:56;100482.47;;;13.73;76.22
11041;BME280;5573;49.592;8.662;2023-02-18T12:01:33;100471.91;;;13.96;74.18
11041;BME280;5573;49.592;8.662;2023-02-18T12:04:09;100481.91;;;14.26;72.54
11041;BME280;5573;49.592;8.662;2023-02-18T12:06:44;100467.28;;;14.22;72.70
11041;BME280;5573;49.592;8.662;2023-02-18T12:09:25;100471.66;;;14.30;72.63
11041;BME280;5573;49.592;8.662;2023-02-18T12:11:57;100459.88;;;14.62;70.19
11041;BME280;5573;49.592;8.662;2023-02-18T12:14:26;100468.59;;;14.68;69.77
11041;BME280;5573;49.592;8.662;2023-02-18T12:17:22;100464.66;;;14.87;70.57
11041;BME280;5573;49.592;8.662;2023-02-18T12:20:05;100470.19;;;14.97;68.70
11041;BME280;5573;49.592;8.662;2023-02-18T12:22:43;100454.34;;;14.69;68.28
11041;BME280;5573;49.592;8.662;2023-02-18T12:25:23;100446.41;;;14.60;69.15
11041;BME280;5573;49.592;8.662;2023-02-18T12:28:03;100449.19;;;14.71;69.32
11041;BME280;5573;49.592;8.662;2023-02-18T12:30:48;100444.78;;;14.52;69.20
11041;BME280;5573;49.592;8.662;2023-02-18T12:33:27;100442.03;;;14.38;69.75
11041;BME280;5573;49.592;8.662;2023-02-18T12:36:04;100439.50;;;13.97;70.38
11041;BME280;5573;49.592;8.662;2023-02-18T12:41:42;100432.00;;;13.97;72.25
11041;BME280;5573;49.592;8.662;2023-02-18T12:44:29;100430.38;;;13.89;70.70
11041;BME280;5573;49.592;8.662;2023-02-18T12:47:14;100398.31;;;13.67;71.21
11041;BME280;5573;49.592;8.662;2023-02-18T12:50:08;100416.16;;;13.83;71.31
11041;BME280;5573;49.592;8.662;2023-02-18T12:52:47;100409.84;;;13.87;71.92
11041;BME280;5573;49.592;8.662;2023-02-18T12:55:40;100419.72;;;13.84;71.92
11041;BME280;5573;49.592;8.662;2023-02-18T12:58:21;100421.72;;;13.87;72.87
11041;BME280;5573;49.592;8.662;2023-02-18T13:01:19;100422.34;;;13.55;72.26
11041;BME280;5573;49.592;8.662;2023-02-18T13:04:20;100408.69;;;13.21;73.35
11041;BME280;5573;49.592;8.662;2023-02-18T13:06:59;100403.31;;;13.39;72.40
11041;BME280;5573;49.592;8.662;2023-02-18T13:09:41;100396.09;;;13.24;73.59
11041;BME280;5573;49.592;8.662;2023-02-18T13:12:20;100400.16;;;13.41;72.97
11041;BME280;5573;49.592;8.662;2023-02-18T13:14:55;100397.81;;;13.43;73.29
11041;BME280;5573;49.592;8.662;2023-02-18T13:17:30;100383.63;;;13.48;72.24
11041;BME280;5573;49.592;8.662;2023-02-18T13:20:04;100384.84;;;13.61;72.65
11041;BME280;5573;49.592;8.662;2023-02-18T13:22:34;100388.47;;;13.73;72.13